METAR AND TAF INFORMATION
METAR FOR LYTV
ADDS - METARS form results

(1744 UTC 14 July 2020)
Data provider http://aviationweather.gov/metar/data/
 
METAR text: LYTV 141730Z 13005KT 080V150 CAVOK 25/07 Q1011 NOSIG
Conditions at: LYTV (TIVAT , CS) observed 1730 UTC 14 July 2020
Temperature: 25.0°C (77°F)
Dewpoint: 7.0°C (45°F) [RH = 32%]
Pressure (altimeter): 29.85 inches Hg (1011.0 mb)
Winds: from the SE (130 degrees) at 6 MPH (5 knots; 2.6 m/s)
Visibility: 6 or more miles (10+ km)
Ceiling: ceiling and visibility are OK
Clouds: unknown
Weather: no significant weather observed at this time

METAR text: LYTV 141700Z 22004KT 130V270 CAVOK 26/06 Q1011 NOSIG
Conditions at: LYTV (TIVAT , CS) observed 1700 UTC 14 July 2020
Temperature: 26.0°C (79°F)
Dewpoint: 6.0°C (43°F) [RH = 28%]
Pressure (altimeter): 29.85 inches Hg (1011.0 mb)
Winds: from the SW (220 degrees) at 5 MPH (4 knots; 2.1 m/s)
Visibility: 6 or more miles (10+ km)
Ceiling: ceiling and visibility are OK
Clouds: unknown
Weather: no significant weather observed at this time

Forecast for: LYTV (TIVAT , CS)
Text: TAF LYTV 141700Z 1418/1518 VRB02KT CAVOK TX29/1513Z TN14/1503Z
Forecast period: 1800 UTC 14 July 2020 to 1800 UTC 15 July 2020
Forecast type: FROM: standard forecast or significant change
Winds: variable direction winds at 2 MPH (2 knots; 1.0 m/s)
Visibility: 6 or more miles 10+ km)
Ceiling: unknown
Clouds: missing
Weather: no significant weather forecast for this period

 AIRPORT MAP

 RUNWAY INFORMATION
Runway 14 Runway length 8208 ft Runway width 148 ft
Runway elevation 7 ft Runway displaced threshold 0 ft Runway heading 139
Runway 32 Runway length 8208 ft Runway width 148 ft
Runway elevation 16 ft Runway displaced threshold 0 ft Runway heading 319

 AIRPORT FREQUENCIES
Type ARR Name APP Frequency 118 MHZ
Type TWR Name TWR Frequency 118 MHZ

 AIRPORT NEAR NAVIGATION AIDS
Type NDB Name Tivat Frequency 345 KHZ



Powered by Virtual Airlines Manager [v2.6.2] Modified by Marmara Virtual Airlines

Marmara Virtual Airlines is not a real airline

All content published on this website or any related services are for flight simulation use only.